createdAt,value
2023-04-27T00:00:00.027Z,64.86
2023-04-27T00:00:13.453Z,64.63
2023-04-27T00:00:25.739Z,64.87
2023-04-27T00:00:37.709Z,65.26
2023-04-27T00:00:49.917Z,64.82
2023-04-27T00:01:06.356Z,64.66
2023-04-27T00:01:18.308Z,64.57
2023-04-27T00:01:31.085Z,64.48
2023-04-27T00:01:43.021Z,64.65
2023-04-27T00:01:55.571Z,64.92
2023-04-27T00:02:07.878Z,65.18
2023-04-27T00:02:20.592Z,65.78
2023-04-27T00:02:32.817Z,65.41
2023-04-27T00:02:44.989Z,65.31
2023-04-27T00:02:57.728Z,65.37
2023-04-27T00:03:10.427Z,65.20
2023-04-27T00:03:23.496Z,65.05
2023-04-27T00:03:35.808Z,64.95
2023-04-27T00:03:48.012Z,64.73
2023-04-27T00:04:00.456Z,65.15
2023-04-27T00:04:14.366Z,65.06
2023-04-27T00:04:26.754Z,64.69
2023-04-27T00:04:39.120Z,65.01
2023-04-27T00:04:51.859Z,64.96
2023-04-27T00:05:05.232Z,64.76
2023-04-27T00:05:17.797Z,64.68
2023-04-27T00:05:29.864Z,64.64
2023-04-27T00:05:42.528Z,64.78
2023-04-27T00:05:54.621Z,65.59
2023-04-27T00:06:07.525Z,65.60
2023-04-27T00:06:19.546Z,65.27
2023-04-27T00:06:32.721Z,65.27
2023-04-27T00:06:44.638Z,65.08
2023-04-27T00:06:56.730Z,65.42
2023-04-27T00:07:09.071Z,65.52
2023-04-27T00:07:21.508Z,65.71
2023-04-27T00:07:33.431Z,65.37
2023-04-27T00:07:45.832Z,65.40
2023-04-27T00:07:57.750Z,65.22
2023-04-27T00:08:09.819Z,65.33
2023-04-27T00:08:21.767Z,64.83
2023-04-27T00:08:33.935Z,64.81
2023-04-27T00:08:45.869Z,64.72
2023-04-27T00:08:57.842Z,64.71
2023-04-27T00:09:09.757Z,64.47
2023-04-27T00:09:21.864Z,64.43
2023-04-27T00:09:33.801Z,64.59
2023-04-27T00:09:45.672Z,64.25
2023-04-27T00:09:57.826Z,64.19
2023-04-27T00:10:10.404Z,64.28
2023-04-27T00:10:22.286Z,64.17
2023-04-27T00:10:34.609Z,64.52
2023-04-27T00:10:46.557Z,64.18
2023-04-27T00:10:58.698Z,64.04
2023-04-27T00:11:10.719Z,64.09
2023-04-27T00:11:22.687Z,64.39
2023-04-27T00:11:34.731Z,64.18
2023-04-27T00:11:46.694Z,64.33
2023-04-27T00:11:58.593Z,65.14
2023-04-27T00:12:10.481Z,65.11
2023-04-27T00:12:22.405Z,64.69
2023-04-27T00:12:34.497Z,64.82
2023-04-27T00:12:46.488Z,64.71
2023-04-27T00:12:58.488Z,65.17
2023-04-27T00:13:10.473Z,65.71
2023-04-27T00:13:22.507Z,65.74
2023-04-27T00:13:34.484Z,65.63
2023-04-27T00:13:46.379Z,65.75
2023-04-27T00:13:58.431Z,66.34
2023-04-27T00:14:10.345Z,65.82
2023-04-27T00:14:22.509Z,65.99
2023-04-27T00:14:34.536Z,65.66
2023-04-27T00:14:46.597Z,65.56
2023-04-27T00:14:58.505Z,65.45
2023-04-27T00:15:11.163Z,65.72
2023-04-27T00:15:23.051Z,65.30
2023-04-27T00:15:34.958Z,65.45
2023-04-27T00:15:46.901Z,65.70
2023-04-27T00:16:01.266Z,65.83
2023-04-27T00:16:13.330Z,65.68
2023-04-27T00:16:25.576Z,65.68
2023-04-27T00:16:37.686Z,66.13
2023-04-27T00:16:49.736Z,65.92
2023-04-27T00:17:01.680Z,66.28
2023-04-27T00:17:13.597Z,66.39
2023-04-27T00:17:25.759Z,66.16
2023-04-27T00:17:38.328Z,65.92
2023-04-27T00:17:50.405Z,65.45
2023-04-27T00:18:02.438Z,65.98
2023-04-27T00:18:14.610Z,66.17
2023-04-27T00:18:26.495Z,66.12
2023-04-27T00:18:38.437Z,65.58
2023-04-27T00:18:50.356Z,65.38
2023-04-27T00:19:02.353Z,65.08
2023-04-27T00:19:15.377Z,65.09
2023-04-27T00:19:28.433Z,65.20
2023-04-27T00:19:41.778Z,65.14
2023-04-27T00:19:54.495Z,65.17
2023-04-27T00:20:08.845Z,65.47
2023-04-27T00:20:20.765Z,65.60
2023-04-27T00:20:33.815Z,65.17
2023-04-27T00:20:45.743Z,65.32
2023-04-27T00:20:58.115Z,65.25
2023-04-27T00:21:10.000Z,65.03
2023-04-27T00:21:21.904Z,64.66
2023-04-27T00:21:33.900Z,64.77
2023-04-27T00:21:45.782Z,64.79
2023-04-27T00:21:58.007Z,64.81
2023-04-27T00:22:09.945Z,64.42
2023-04-27T00:22:22.265Z,64.52
2023-04-27T00:22:34.189Z,64.70
2023-04-27T00:22:46.433Z,64.24
2023-04-27T00:22:58.364Z,63.99
2023-04-27T00:23:10.838Z,64.57
2023-04-27T00:23:22.775Z,64.71
2023-04-27T00:23:35.114Z,64.38
2023-04-27T00:23:47.196Z,64.53
2023-04-27T00:23:59.074Z,65.35
2023-04-27T00:24:11.052Z,65.76
2023-04-27T00:24:23.097Z,65.30
2023-04-27T00:24:35.028Z,65.45
2023-04-27T00:24:46.976Z,65.21
2023-04-27T00:24:58.912Z,65.58
2023-04-27T00:25:11.725Z,65.61
2023-04-27T00:25:23.669Z,65.37
2023-04-27T00:25:35.622Z,65.72
2023-04-27T00:25:47.486Z,66.03
2023-04-27T00:25:59.406Z,66.08
2023-04-27T00:26:11.513Z,66.13
2023-04-27T00:26:23.577Z,66.48
2023-04-27T00:26:35.503Z,66.50
2023-04-27T00:26:47.478Z,65.72
2023-04-27T00:26:59.408Z,65.36
2023-04-27T00:27:13.380Z,65.21
2023-04-27T00:27:25.481Z,64.82
2023-04-27T00:27:37.665Z,64.37
2023-04-27T00:27:49.673Z,65.24
2023-04-27T00:28:01.698Z,65.13
2023-04-27T00:28:13.579Z,65.20
2023-04-27T00:28:25.502Z,64.95
2023-04-27T00:28:37.415Z,64.88
2023-04-27T00:28:49.335Z,64.66
2023-04-27T00:29:01.259Z,64.54
2023-04-27T00:29:13.465Z,64.79
2023-04-27T00:29:25.633Z,65.55
2023-04-27T00:29:37.615Z,65.33
2023-04-27T00:29:49.965Z,65.17
2023-04-27T00:30:02.010Z,65.12
2023-04-27T00:30:14.232Z,65.53
2023-04-27T00:30:26.401Z,65.85
2023-04-27T00:30:38.449Z,65.73
2023-04-27T00:30:50.632Z,65.22
2023-04-27T00:31:04.023Z,64.99
2023-04-27T00:31:16.141Z,65.43
2023-04-27T00:31:29.163Z,65.86
2023-04-27T00:31:41.137Z,65.50
2023-04-27T00:31:53.161Z,64.64
2023-04-27T00:32:05.676Z,64.91
2023-04-27T00:32:17.596Z,65.05
2023-04-27T00:32:29.578Z,64.90
2023-04-27T00:32:42.597Z,65.30
2023-04-27T00:32:54.685Z,65.13
2023-04-27T00:33:07.008Z,65.09
2023-04-27T00:33:18.937Z,64.92
2023-04-27T00:33:30.883Z,64.93
2023-04-27T00:33:42.812Z,64.68
2023-04-27T00:33:54.704Z,64.18
2023-04-27T00:34:06.730Z,64.03
2023-04-27T00:34:18.634Z,64.12
2023-04-27T00:34:30.991Z,64.23
2023-04-27T00:34:42.936Z,64.38
2023-04-27T00:34:54.866Z,64.95
2023-04-27T00:35:10.136Z,65.01
2023-04-27T00:35:22.143Z,65.25
2023-04-27T00:35:34.106Z,65.70
2023-04-27T00:35:46.122Z,65.62
2023-04-27T00:36:01.626Z,65.17
2023-04-27T00:36:13.575Z,65.09
2023-04-27T00:36:25.554Z,65.41
2023-04-27T00:36:37.545Z,65.88
2023-04-27T00:36:49.445Z,65.84
2023-04-27T00:37:01.471Z,65.40
2023-04-27T00:37:13.559Z,65.79
2023-04-27T00:37:25.522Z,65.82
2023-04-27T00:37:37.385Z,66.20
2023-04-27T00:37:49.339Z,66.11
2023-04-27T00:38:01.304Z,66.11
2023-04-27T00:38:13.314Z,66.15
2023-04-27T00:38:25.905Z,65.95
2023-04-27T00:38:37.832Z,65.46
2023-04-27T00:38:49.782Z,65.17
2023-04-27T00:39:05.254Z,64.99
2023-04-27T00:39:23.150Z,65.59
2023-04-27T00:39:37.750Z,65.29
2023-04-27T00:40:11.087Z,64.94
2023-04-27T00:40:23.083Z,65.95
2023-04-27T00:40:35.026Z,65.72
2023-04-27T00:40:47.035Z,64.85
2023-04-27T00:41:02.787Z,64.65
2023-04-27T00:41:14.739Z,65.07
2023-04-27T00:41:26.652Z,65.02
2023-04-27T00:41:41.756Z,65.14
2023-04-27T00:41:53.714Z,65.03
2023-04-27T00:42:06.372Z,64.94
2023-04-27T00:42:19.687Z,65.02
2023-04-27T00:42:31.646Z,64.81
2023-04-27T00:42:43.585Z,64.75
2023-04-27T00:42:55.531Z,64.81
2023-04-27T00:43:07.460Z,64.60
2023-04-27T00:43:19.365Z,64.49
2023-04-27T00:43:32.461Z,64.67
2023-04-27T00:43:46.116Z,64.54
2023-04-27T00:43:58.162Z,64.82
2023-04-27T00:44:10.032Z,64.50
2023-04-27T00:44:23.551Z,64.61
2023-04-27T00:44:35.932Z,64.61
2023-04-27T00:44:48.062Z,64.91
2023-04-27T00:45:00.056Z,65.26
2023-04-27T00:45:14.749Z,65.32
2023-04-27T00:45:26.742Z,65.61
2023-04-27T00:45:42.991Z,65.29
2023-04-27T00:45:55.075Z,65.26
2023-04-27T00:46:07.472Z,65.40
2023-04-27T00:46:19.809Z,65.50
2023-04-27T00:46:33.309Z,65.44
2023-04-27T00:46:45.332Z,65.65
2023-04-27T00:46:58.519Z,65.65
2023-04-27T00:47:11.360Z,65.54
2023-04-27T00:47:23.383Z,65.93
2023-04-27T00:47:35.456Z,65.65
2023-04-27T00:47:47.496Z,65.95
2023-04-27T00:47:59.486Z,65.39
2023-04-27T00:48:12.567Z,65.40
2023-04-27T00:48:24.679Z,65.54
2023-04-27T00:48:37.565Z,66.03
2023-04-27T00:48:49.638Z,65.63
2023-04-27T00:49:02.339Z,65.44
2023-04-27T00:49:14.604Z,65.09
2023-04-27T00:49:27.442Z,65.21
2023-04-27T00:49:40.594Z,65.44
2023-04-27T00:49:53.306Z,66.26
2023-04-27T00:50:08.527Z,66.88
2023-04-27T00:50:28.512Z,66.66
2023-04-27T00:50:40.573Z,66.96
2023-04-27T00:50:52.832Z,66.44
2023-04-27T00:51:06.015Z,66.35
2023-04-27T00:51:18.334Z,66.65
2023-04-27T00:51:31.281Z,66.79
2023-04-27T00:51:43.229Z,66.18
2023-04-27T00:51:56.200Z,66.13
2023-04-27T00:52:08.385Z,66.09
2023-04-27T00:52:20.603Z,66.17
2023-04-27T00:52:32.589Z,66.69
2023-04-27T00:52:44.512Z,66.66
2023-04-27T00:52:57.354Z,66.58
2023-04-27T00:53:09.420Z,66.07
2023-04-27T00:53:21.562Z,66.32
2023-04-27T00:53:34.422Z,66.63
2023-04-27T00:53:46.373Z,66.47
2023-04-27T00:53:58.969Z,66.31
2023-04-27T00:54:11.132Z,66.59
2023-04-27T00:54:24.294Z,66.33
2023-04-27T00:54:36.359Z,65.99
2023-04-27T00:54:52.298Z,66.65
2023-04-27T00:55:05.470Z,66.22
2023-04-27T00:55:20.091Z,66.18
2023-04-27T00:55:31.990Z,65.90
2023-04-27T00:55:43.936Z,65.97
2023-04-27T00:55:57.894Z,65.99
2023-04-27T00:56:09.836Z,66.07
2023-04-27T00:56:22.710Z,66.22
2023-04-27T00:56:34.621Z,66.16
2023-04-27T00:56:52.924Z,65.70
2023-04-27T00:57:05.214Z,65.96
2023-04-27T00:57:17.187Z,65.96
2023-04-27T00:57:29.201Z,65.97
2023-04-27T00:57:41.233Z,65.92
2023-04-27T00:57:53.213Z,66.03
2023-04-27T00:58:05.131Z,65.83
2023-04-27T00:58:17.172Z,65.35
2023-04-27T00:58:29.124Z,65.83
2023-04-27T00:58:41.023Z,65.09
2023-04-27T00:58:52.917Z,65.23
2023-04-27T00:59:04.817Z,65.01
2023-04-27T00:59:17.915Z,64.73
2023-04-27T00:59:29.885Z,65.08
2023-04-27T00:59:41.813Z,65.13
2023-04-27T00:59:53.835Z,65.35
2023-04-27T01:00:07.134Z,65.93
2023-04-27T01:00:19.132Z,65.95
2023-04-27T01:00:31.170Z,66.28
2023-04-27T01:00:43.749Z,66.35
2023-04-27T01:00:56.323Z,66.63
2023-04-27T01:01:10.293Z,66.50
2023-04-27T01:01:22.599Z,66.68
2023-04-27T01:01:34.794Z,66.52
2023-04-27T01:01:47.061Z,66.52
2023-04-27T01:01:59.743Z,66.36
2023-04-27T01:02:12.202Z,66.57
2023-04-27T01:02:24.596Z,66.56
2023-04-27T01:02:37.122Z,66.75
2023-04-27T01:02:49.563Z,66.38
2023-04-27T01:03:02.018Z,66.36
2023-04-27T01:03:14.355Z,66.43
2023-04-27T01:03:27.347Z,66.24
2023-04-27T01:03:39.542Z,65.70
2023-04-27T01:03:51.895Z,65.69
2023-04-27T01:04:04.571Z,65.79
2023-04-27T01:04:17.954Z,66.14
2023-04-27T01:04:32.229Z,65.81
2023-04-27T01:04:44.437Z,65.55
2023-04-27T01:04:56.861Z,65.72
2023-04-27T01:05:09.361Z,65.90
2023-04-27T01:05:24.326Z,65.99
2023-04-27T01:05:37.396Z,65.84
2023-04-27T01:05:49.282Z,66.26
2023-04-27T01:06:01.722Z,66.11
2023-04-27T01:06:13.834Z,66.18
2023-04-27T01:06:25.742Z,66.34
2023-04-27T01:06:39.153Z,66.46
2023-04-27T01:06:51.731Z,66.62
2023-04-27T01:07:04.315Z,66.92
2023-04-27T01:07:17.026Z,66.65
2023-04-27T01:07:29.424Z,66.97
2023-04-27T01:07:41.411Z,66.80
2023-04-27T01:07:53.376Z,66.89
2023-04-27T01:08:05.570Z,66.98
2023-04-27T01:08:17.537Z,66.82
2023-04-27T01:08:29.755Z,66.82
2023-04-27T01:08:44.598Z,67.42
2023-04-27T01:08:56.550Z,67.03
2023-04-27T01:09:09.248Z,67.17
2023-04-27T01:09:21.423Z,66.59
2023-04-27T01:09:33.304Z,66.56
2023-04-27T01:09:46.639Z,66.74
2023-04-27T01:09:58.660Z,66.79
2023-04-27T01:10:10.712Z,67.00
2023-04-27T01:10:22.806Z,66.56
2023-04-27T01:10:37.646Z,67.04
2023-04-27T01:10:49.669Z,66.84
2023-04-27T01:11:01.809Z,66.92
2023-04-27T01:11:13.842Z,67.24
2023-04-27T01:11:26.211Z,67.10
2023-04-27T01:11:38.157Z,67.33
2023-04-27T01:11:50.305Z,67.16
2023-04-27T01:12:03.417Z,66.95
2023-04-27T01:12:15.355Z,66.74
2023-04-27T01:12:27.274Z,66.51
2023-04-27T01:12:39.369Z,66.71
2023-04-27T01:12:51.337Z,66.65
2023-04-27T01:13:03.838Z,66.46
2023-04-27T01:13:15.781Z,66.40
2023-04-27T01:13:27.737Z,66.95
2023-04-27T01:13:39.799Z,66.79
2023-04-27T01:13:52.543Z,67.15
2023-04-27T01:14:06.534Z,66.77
2023-04-27T01:14:18.492Z,66.70
2023-04-27T01:14:30.531Z,66.73
2023-04-27T01:14:42.714Z,67.00
2023-04-27T01:14:54.597Z,67.56
2023-04-27T01:15:07.159Z,68.08
2023-04-27T01:15:19.041Z,67.98
2023-04-27T01:15:31.404Z,67.05
2023-04-27T01:15:43.307Z,66.98
2023-04-27T01:15:55.515Z,67.39
2023-04-27T01:16:07.475Z,67.46
2023-04-27T01:16:19.638Z,67.46
2023-04-27T01:16:32.808Z,67.75
2023-04-27T01:16:46.260Z,66.89
2023-04-27T01:16:58.452Z,66.78
2023-04-27T01:17:10.922Z,66.54
2023-04-27T01:17:23.358Z,67.13
2023-04-27T01:17:35.766Z,67.20
2023-04-27T01:17:48.801Z,66.82
2023-04-27T01:18:02.273Z,66.76
2023-04-27T01:18:14.646Z,67.63
2023-04-27T01:18:26.699Z,67.21
2023-04-27T01:18:40.722Z,66.85
2023-04-27T01:18:52.770Z,66.84
2023-04-27T01:19:05.458Z,66.56
2023-04-27T01:19:17.387Z,66.53
2023-04-27T01:19:29.348Z,67.08
2023-04-27T01:19:41.315Z,66.92
2023-04-27T01:19:55.299Z,66.70
2023-04-27T01:20:10.356Z,66.50
2023-04-27T01:20:22.693Z,66.61
2023-04-27T01:20:34.621Z,66.36
2023-04-27T01:20:46.566Z,66.50
2023-04-27T01:21:00.184Z,66.22
2023-04-27T01:21:12.249Z,65.95
2023-04-27T01:21:24.836Z,66.36
2023-04-27T01:21:36.937Z,67.24
2023-04-27T01:21:48.812Z,67.33
2023-04-27T01:22:00.810Z,67.39
2023-04-27T01:22:15.093Z,67.30
2023-04-27T01:22:27.121Z,67.42
2023-04-27T01:22:39.608Z,67.10
2023-04-27T01:22:51.542Z,67.23
2023-04-27T01:23:03.461Z,67.16
2023-04-27T01:23:17.301Z,67.35
2023-04-27T01:23:29.616Z,67.37
2023-04-27T01:23:41.521Z,67.13
2023-04-27T01:23:54.498Z,67.04
2023-04-27T01:24:07.309Z,67.13
2023-04-27T01:24:19.603Z,67.70
2023-04-27T01:24:31.536Z,67.83
2023-04-27T01:24:43.728Z,67.90
2023-04-27T01:24:55.741Z,67.66
2023-04-27T01:25:08.082Z,67.90
2023-04-27T01:25:20.137Z,67.62
2023-04-27T01:25:44.234Z,67.20
2023-04-27T01:25:56.585Z,67.49
2023-04-27T01:26:08.564Z,67.65
2023-04-27T01:26:21.237Z,67.75
2023-04-27T01:26:33.656Z,67.88
2023-04-27T01:26:45.574Z,67.77
2023-04-27T01:26:57.474Z,68.10
2023-04-27T01:27:09.420Z,67.79
2023-04-27T01:27:21.536Z,67.78
2023-04-27T01:27:33.967Z,67.18
2023-04-27T01:27:45.971Z,67.36
2023-04-27T01:27:57.858Z,67.69
2023-04-27T01:28:09.890Z,68.13
2023-04-27T01:28:21.792Z,67.69
2023-04-27T01:28:33.756Z,68.04
2023-04-27T01:28:45.813Z,68.13
2023-04-27T01:28:57.714Z,68.09
2023-04-27T01:29:09.679Z,67.49
2023-04-27T01:29:22.224Z,67.18
2023-04-27T01:29:34.170Z,67.40
2023-04-27T01:29:46.117Z,68.21
2023-04-27T01:29:57.995Z,67.89
2023-04-27T01:30:10.050Z,67.86
2023-04-27T01:30:25.253Z,67.31
2023-04-27T01:30:37.254Z,67.43
2023-04-27T01:30:49.694Z,67.67
2023-04-27T01:31:04.303Z,67.17
2023-04-27T01:31:16.473Z,67.31
2023-04-27T01:31:28.513Z,67.00
2023-04-27T01:31:40.903Z,66.65
2023-04-27T01:31:53.134Z,66.82
2023-04-27T01:32:05.680Z,67.38
2023-04-27T01:32:17.699Z,67.46
2023-04-27T01:32:29.621Z,67.46
2023-04-27T01:32:42.087Z,67.52
2023-04-27T01:32:54.341Z,67.41
2023-04-27T01:33:06.345Z,67.77
2023-04-27T01:33:18.390Z,67.05
2023-04-27T01:33:30.685Z,66.91
2023-04-27T01:33:42.756Z,66.86
2023-04-27T01:33:55.293Z,67.24
2023-04-27T01:34:07.547Z,66.93
2023-04-27T01:34:19.666Z,67.67
2023-04-27T01:34:32.096Z,67.72
2023-04-27T01:34:44.090Z,67.44
2023-04-27T01:34:56.016Z,68.16
2023-04-27T01:35:08.665Z,67.79
2023-04-27T01:35:20.872Z,68.02
2023-04-27T01:35:32.865Z,67.79
2023-04-27T01:35:44.788Z,67.50
2023-04-27T01:35:56.723Z,67.27
2023-04-27T01:36:09.299Z,67.26
2023-04-27T01:36:21.211Z,66.99
2023-04-27T01:36:33.150Z,66.92
2023-04-27T01:36:45.050Z,67.09
2023-04-27T01:36:57.121Z,67.49
2023-04-27T01:37:09.031Z,67.24
2023-04-27T01:37:21.178Z,67.44
2023-04-27T01:37:33.375Z,67.58
2023-04-27T01:37:45.511Z,67.33
2023-04-27T01:37:57.564Z,67.27
2023-04-27T01:38:09.592Z,67.16
2023-04-27T01:38:21.503Z,67.48
2023-04-27T01:38:34.312Z,67.08
2023-04-27T01:38:46.228Z,66.93
2023-04-27T01:38:58.191Z,67.16
2023-04-27T01:39:10.131Z,67.22
2023-04-27T01:39:22.105Z,67.15
2023-04-27T01:39:34.331Z,67.50
2023-04-27T01:39:46.246Z,67.60
2023-04-27T01:39:58.133Z,68.01
2023-04-27T01:40:10.570Z,68.06
2023-04-27T01:40:22.498Z,68.18
2023-04-27T01:40:34.397Z,68.13
2023-04-27T01:40:46.285Z,68.14
2023-04-27T01:41:02.992Z,67.46
2023-04-27T01:41:14.908Z,67.31
2023-04-27T01:41:26.973Z,67.20
2023-04-27T01:41:38.939Z,66.80
2023-04-27T01:41:50.868Z,66.33
2023-04-27T01:42:03.709Z,67.39
2023-04-27T01:42:15.583Z,67.50
2023-04-27T01:42:27.566Z,67.55
2023-04-27T01:42:39.487Z,67.56
2023-04-27T01:42:51.518Z,67.32
2023-04-27T01:43:03.495Z,67.48
2023-04-27T01:43:15.542Z,67.03
2023-04-27T01:43:28.217Z,67.54
2023-04-27T01:43:40.161Z,67.63
2023-04-27T01:43:52.115Z,67.45
2023-04-27T01:44:04.107Z,67.57
2023-04-27T01:44:16.180Z,67.92
2023-04-27T01:44:28.111Z,67.84
2023-04-27T01:44:40.067Z,67.92
2023-04-27T01:44:52.039Z,67.15
2023-04-27T01:45:04.413Z,67.20
2023-04-27T01:45:16.304Z,67.21
2023-04-27T01:45:28.397Z,67.55
2023-04-27T01:45:40.360Z,67.46
2023-04-27T01:45:52.313Z,67.27
2023-04-27T01:46:12.414Z,67.29
2023-04-27T01:46:24.967Z,67.09
2023-04-27T01:46:37.036Z,66.84
2023-04-27T01:46:49.161Z,67.52
2023-04-27T01:47:01.204Z,66.87
2023-04-27T01:47:15.233Z,67.41
2023-04-27T01:47:27.609Z,67.87
2023-04-27T01:47:39.974Z,67.64
2023-04-27T01:47:52.529Z,67.65
2023-04-27T01:48:04.743Z,67.34
2023-04-27T01:48:17.046Z,67.01
2023-04-27T01:48:28.955Z,67.32
2023-04-27T01:48:41.450Z,68.04
2023-04-27T01:48:53.379Z,68.04
2023-04-27T01:49:05.789Z,68.14
2023-04-27T01:49:17.707Z,68.02
2023-04-27T01:49:29.596Z,67.67
2023-04-27T01:50:11.466Z,66.89
2023-04-27T01:51:24.807Z,67.37
2023-04-27T01:51:36.728Z,67.34
2023-04-27T01:51:48.683Z,66.96
2023-04-27T01:52:00.801Z,67.47
2023-04-27T01:52:12.716Z,66.93
2023-04-27T01:52:54.077Z,67.05
2023-04-27T01:53:35.228Z,66.49
2023-04-27T01:54:16.516Z,66.22
2023-04-27T01:54:28.878Z,66.21
2023-04-27T01:54:41.077Z,66.32
2023-04-27T01:55:22.671Z,66.42
2023-04-27T01:55:34.631Z,66.49
2023-04-27T01:55:46.583Z,66.35
2023-04-27T01:55:59.681Z,66.70
2023-04-27T01:58:08.896Z,67.76
2023-04-27T01:58:20.824Z,67.70
2023-04-27T01:58:32.751Z,67.82
2023-04-27T01:58:44.702Z,67.47
2023-04-27T01:58:56.670Z,67.35
2023-04-27T02:00:08.206Z,67.08
2023-04-27T02:00:20.132Z,67.52
2023-04-27T02:00:32.180Z,67.37
2023-04-27T02:00:44.088Z,66.76
2023-04-27T02:00:56.091Z,66.92
2023-04-27T02:01:08.044Z,66.64
2023-04-27T02:01:20.176Z,66.86
2023-04-27T02:01:34.689Z,66.69
2023-04-27T02:01:46.641Z,66.41
2023-04-27T02:01:58.686Z,66.46
2023-04-27T02:02:10.712Z,66.37
2023-04-27T02:02:22.833Z,66.75
2023-04-27T02:02:34.971Z,66.46
2023-04-27T02:02:47.266Z,66.81
2023-04-27T02:03:00.666Z,67.38
2023-04-27T02:03:12.882Z,67.75
2023-04-27T02:03:24.997Z,68.51
2023-04-27T02:03:37.294Z,67.99
2023-04-27T02:04:48.370Z,68.27
2023-04-27T02:05:00.416Z,67.94
2023-04-27T02:05:12.338Z,67.32
2023-04-27T02:05:24.425Z,67.35
2023-04-27T02:05:36.472Z,67.79
2023-04-27T02:05:48.455Z,67.48
2023-04-27T02:06:00.911Z,68.12
2023-04-27T02:06:45.539Z,67.99
2023-04-27T02:06:57.440Z,68.67
2023-04-27T02:07:38.654Z,69.26
2023-04-27T02:07:50.863Z,68.76
2023-04-27T02:08:02.936Z,69.05
2023-04-27T02:08:15.125Z,69.12
2023-04-27T02:09:25.409Z,68.32
2023-04-27T02:09:37.321Z,68.29
2023-04-27T02:09:49.193Z,67.88
2023-04-27T02:10:30.750Z,67.10
2023-04-27T02:10:42.732Z,67.09
2023-04-27T02:10:54.670Z,67.07
2023-04-27T02:12:06.074Z,67.11
2023-04-27T02:12:18.019Z,67.32
2023-04-27T02:12:59.476Z,68.77
2023-04-27T02:13:11.458Z,69.05
2023-04-27T02:13:53.033Z,69.10
2023-04-27T02:14:04.990Z,68.80
2023-04-27T02:14:16.948Z,69.16
2023-04-27T02:14:28.902Z,68.81
2023-04-27T02:15:39.996Z,68.19
2023-04-27T02:15:52.436Z,67.99
2023-04-27T02:16:05.171Z,67.93
2023-04-27T02:16:17.321Z,67.33
2023-04-27T02:16:29.427Z,67.54
2023-04-27T02:16:41.432Z,67.87
2023-04-27T02:16:53.443Z,67.85
2023-04-27T02:17:05.492Z,67.78
2023-04-27T02:17:17.423Z,68.22
2023-04-27T02:17:29.621Z,67.94
2023-04-27T02:18:40.714Z,68.12
2023-04-27T02:18:53.776Z,68.23
2023-04-27T02:19:35.128Z,68.19
2023-04-27T02:19:47.079Z,68.04
2023-04-27T02:19:59.011Z,68.71
2023-04-27T02:20:12.404Z,68.57
2023-04-27T02:20:24.567Z,68.60
2023-04-27T02:21:10.621Z,67.69
2023-04-27T02:21:22.952Z,67.50
2023-04-27T02:21:34.888Z,68.00
2023-04-27T02:22:16.358Z,68.10
2023-04-27T02:23:26.962Z,68.24
2023-04-27T02:23:38.924Z,68.33
2023-04-27T02:23:50.822Z,68.68
2023-04-27T02:24:02.732Z,68.73
2023-04-27T02:24:14.655Z,68.50
2023-04-27T02:24:56.041Z,67.63
2023-04-27T02:25:08.691Z,67.64
2023-04-27T02:26:22.034Z,67.79
2023-04-27T02:26:34.948Z,67.32
2023-04-27T02:26:46.901Z,67.12
2023-04-27T02:26:59.006Z,67.31
2023-04-27T02:31:29.259Z,67.77
2023-04-27T02:34:03.884Z,67.24
2023-04-27T02:35:12.574Z,67.58
2023-04-27T02:37:47.133Z,66.38
2023-04-27T02:40:21.131Z,67.24
2023-04-27T02:44:21.746Z,66.56
2023-04-27T02:49:48.571Z,65.85
2023-04-27T02:53:49.665Z,65.90
2023-04-27T02:54:57.820Z,65.90
2023-04-27T02:56:06.053Z,65.61
2023-04-27T02:58:40.652Z,64.99
2023-04-27T03:01:15.193Z,65.22
2023-04-27T03:02:23.332Z,65.39
2023-04-27T03:10:41.353Z,64.88
2023-04-27T03:11:49.577Z,64.53
2023-04-27T03:12:58.197Z,63.70
2023-04-27T03:16:58.356Z,63.48
2023-04-27T03:17:29.030Z,63.59
2023-04-27T03:17:41.110Z,63.52
2023-04-27T03:17:53.122Z,64.23
2023-04-27T03:18:06.094Z,64.30
2023-04-27T03:18:17.997Z,63.58
2023-04-27T03:18:29.957Z,64.00
2023-04-27T03:18:41.946Z,63.53
2023-04-27T03:18:53.869Z,64.25
2023-04-27T03:19:06.098Z,64.05
2023-04-27T03:19:18.040Z,64.35
2023-04-27T03:19:29.997Z,64.25
2023-04-27T03:19:41.889Z,63.97
2023-04-27T03:19:54.191Z,63.94
2023-04-27T03:20:10.116Z,64.45
2023-04-27T03:20:22.115Z,63.87
2023-04-27T03:20:34.120Z,63.90
2023-04-27T03:20:46.470Z,64.37
2023-04-27T03:21:13.924Z,64.77
2023-04-27T03:21:26.903Z,64.73
2023-04-27T03:21:38.848Z,65.18
2023-04-27T03:21:50.960Z,65.07
2023-04-27T03:22:02.923Z,64.25
2023-04-27T03:22:15.031Z,64.40
2023-04-27T03:22:26.985Z,64.80
2023-04-27T03:22:39.020Z,65.07
2023-04-27T03:22:50.984Z,65.28
2023-04-27T03:23:02.927Z,64.84
2023-04-27T03:23:14.911Z,64.89
2023-04-27T03:23:26.947Z,65.14
2023-04-27T03:23:39.634Z,65.12
2023-04-27T03:23:51.572Z,64.86
2023-04-27T03:24:03.892Z,64.65
2023-04-27T03:24:16.489Z,64.84
2023-04-27T03:24:28.583Z,64.71
2023-04-27T03:24:40.713Z,64.27
2023-04-27T03:24:52.624Z,64.61
2023-04-27T03:25:05.417Z,64.81
2023-04-27T03:25:17.374Z,64.96
2023-04-27T03:25:29.360Z,64.97
2023-04-27T03:25:41.294Z,64.84
2023-04-27T03:25:53.388Z,64.59
2023-04-27T03:26:13.516Z,64.62
2023-04-27T03:26:26.372Z,64.55
2023-04-27T03:26:38.352Z,64.25
2023-04-27T03:26:51.128Z,64.78
2023-04-27T03:27:03.016Z,64.91
2023-04-27T03:27:14.958Z,65.21
2023-04-27T03:27:26.876Z,64.54
2023-04-27T03:27:38.788Z,64.09
2023-04-27T03:27:50.875Z,64.46
2023-04-27T03:28:02.983Z,65.01
2023-04-27T03:28:14.865Z,64.51
2023-04-27T03:28:26.791Z,64.48
2023-04-27T03:28:39.213Z,64.37
2023-04-27T03:28:51.155Z,64.58
2023-04-27T03:29:03.073Z,64.28
2023-04-27T03:29:15.190Z,64.27
2023-04-27T03:29:27.255Z,64.06
2023-04-27T03:29:40.460Z,64.05
2023-04-27T03:29:55.345Z,64.91
2023-04-27T03:30:07.928Z,65.08
2023-04-27T03:30:19.911Z,65.21
2023-04-27T03:30:31.889Z,64.63
2023-04-27T03:30:43.842Z,64.99
2023-04-27T03:31:33.282Z,64.75
2023-04-27T03:32:22.668Z,64.85
2023-04-27T03:33:30.978Z,64.37
2023-04-27T03:34:01.681Z,64.20
2023-04-27T03:34:51.061Z,63.63
2023-04-27T03:35:21.567Z,64.78
2023-04-27T03:35:51.876Z,65.10
2023-04-27T03:36:05.191Z,64.59
2023-04-27T03:36:54.565Z,64.96
2023-04-27T03:37:44.058Z,64.36
2023-04-27T03:38:33.407Z,63.90
2023-04-27T03:39:41.466Z,63.80
2023-04-27T03:40:31.123Z,63.30
2023-04-27T03:41:20.677Z,62.65
2023-04-27T03:42:10.425Z,63.04
2023-04-27T03:42:41.179Z,63.79
2023-04-27T03:43:49.290Z,63.61
2023-04-27T03:44:38.607Z,64.39
2023-04-27T03:45:10.300Z,63.76
2023-04-27T03:46:00.002Z,63.76
2023-04-27T03:46:49.680Z,64.13
2023-04-27T03:47:01.905Z,62.90
2023-04-27T03:47:51.301Z,63.65
2023-04-27T03:48:21.987Z,63.78
2023-04-27T03:48:34.042Z,63.68
2023-04-27T03:49:04.450Z,63.70
2023-04-27T03:49:36.031Z,62.83
2023-04-27T03:50:07.189Z,63.93
2023-04-27T03:50:19.455Z,63.71
2023-04-27T03:50:49.803Z,63.78
2023-04-27T03:51:01.938Z,63.14
2023-04-27T03:51:14.909Z,63.38
2023-04-27T03:51:27.055Z,63.54
2023-04-27T03:52:16.689Z,63.83
2023-04-27T03:53:06.067Z,63.51
2023-04-27T03:53:55.653Z,63.70
2023-04-27T03:54:26.355Z,63.44
2023-04-27T03:55:15.715Z,63.42
2023-04-27T03:56:05.122Z,64.56
2023-04-27T03:56:35.429Z,64.48
2023-04-27T03:57:06.402Z,63.81
2023-04-27T03:57:55.971Z,64.01
2023-04-27T03:58:46.736Z,63.71
2023-04-27T03:59:17.345Z,63.81
2023-04-27T04:00:12.820Z,63.57
2023-04-27T04:01:01.856Z,64.08
2023-04-27T04:01:33.448Z,63.98
2023-04-27T04:02:23.062Z,64.25
2023-04-27T04:02:53.596Z,64.40
2023-04-27T04:03:07.066Z,63.80
2023-04-27T04:03:37.608Z,63.67
2023-04-27T04:03:53.500Z,63.23
2023-04-27T04:04:43.069Z,63.25
2023-04-27T04:05:13.543Z,62.79
2023-04-27T04:06:06.151Z,62.59
2023-04-27T04:06:37.284Z,62.93
2023-04-27T04:07:07.477Z,62.86
2023-04-27T04:08:15.592Z,62.70
2023-04-27T04:09:24.141Z,62.68
2023-04-27T04:10:32.542Z,62.44
2023-04-27T04:11:03.782Z,61.54
2023-04-27T04:11:34.184Z,61.95
2023-04-27T04:12:23.385Z,61.86
2023-04-27T04:13:12.659Z,61.52
2023-04-27T04:13:44.041Z,61.83
2023-04-27T04:14:14.175Z,60.92
2023-04-27T04:14:46.401Z,61.13
2023-04-27T04:15:17.514Z,60.93